SKPC/PCR METAR and TAF weather

Enter ICAO airport designator
Station Type Date Time Source
SKPC METAR 2018/12/13 01:00 UTC NOAA

SKPC 130100Z 05004KT CAVOK 29/22 A2986


Station Type Date Time Source
SKPC Decoded METAR 2018/12/13 01:00 UTC NOAA

Puerto Carreno / A. Guauquea, Colombia (SKPC) 06-10N 067-30W
Dec 12, 2018 - 08:00 PM EST / 2018.12.13 0100 UTC
Wind: from the NE (050 degrees) at 5 MPH (4 KT):0
Visibility: greater than 7 mile(s):0
Temperature: 84 F (29 C)
Dew Point: 71 F (22 C)
Relative Humidity: 65%
Pressure (altimeter): 29.86 in. Hg (1011 hPa)
ob: SKPC 130100Z 05004KT CAVOK 29/22 A2986
cycle: 1

Station Type Date Time Source
SKPC TAF UTC NOAA

Error!


Example: see airport list